Time;durP1;ratioP1;P1;durP2;ratioP2;P2;SDS_P1;SDS_P2;PMS_P1;PMS_P2;Temp;Humidity;BMP_temperature;BMP_pressure;BME280_temperature;BME280_humidity;BME280_pressure;Samples;Min_cycle;Max_cycle;Signal;HPM_P1;HPM_P2
2021/06/05 00:01:34;;;;;;;17.60;16.15;;;;;;;17.45;86.58;95738.91;4933941;29;20489;-63
2021/06/05 00:04:00;;;;;;;25.33;22.80;;;;;;;17.42;86.52;95731.50;4933247;29;20039;-63
2021/06/05 00:06:27;;;;;;;19.48;17.67;;;;;;;17.54;86.52;95739.59;4934203;29;20039;-62
2021/06/05 00:08:53;;;;;;;20.17;18.35;;;;;;;17.57;86.30;95733.56;4933766;29;20031;-62
2021/06/05 00:11:22;;;;;;;21.88;19.98;;;;;;;17.52;85.96;95725.72;4934939;29;20032;-63
2021/06/05 00:13:49;;;;;;;14.85;13.75;;;;;;;17.62;86.00;95735.25;4931800;29;20501;-63
2021/06/05 00:16:22;;;;;;;17.67;16.27;;;;;;;17.62;85.77;95727.19;4933692;29;20148;-63
2021/06/05 00:18:48;;;;;;;24.40;21.92;;;;;;;17.54;85.71;95720.78;4933709;29;20035;-62
2021/06/05 00:21:18;;;;;;;19.88;17.98;;;;;;;17.64;85.46;95733.00;4933590;29;20098;-63
2021/06/05 00:23:44;;;;;;;22.70;20.83;;;;;;;17.59;85.34;95719.78;4934989;29;20053;-63
2021/06/05 00:26:10;;;;;;;15.40;14.20;;;;;;;17.73;85.46;95741.78;4932806;29;20746;-63
2021/06/05 00:28:35;;;;;;;22.55;20.50;;;;;;;17.65;85.23;95721.91;4938588;29;20042;-62
2021/06/05 00:31:01;;;;;;;16.50;15.20;;;;;;;17.66;85.18;95725.41;4933378;29;20055;-62
2021/06/05 00:33:27;;;;;;;14.65;13.55;;;;;;;17.79;84.67;95742.34;4932860;29;20040;-63
2021/06/05 00:35:53;;;;;;;14.95;13.93;;;;;;;17.75;84.60;95736.84;4935181;29;20032;-62
2021/06/05 00:38:19;;;;;;;14.25;13.05;;;;;;;17.77;84.30;95736.53;4932591;29;20071;-63
2021/06/05 00:40:49;;;;;;;18.88;16.98;;;;;;;17.78;84.38;95735.41;4932789;29;20063;-63
2021/06/05 00:43:16;;;;;;;14.20;13.20;;;;;;;17.80;84.34;95738.53;4943171;28;20031;-63
2021/06/05 00:45:45;;;;;;;15.15;13.85;;;;;;;17.71;84.12;95727.06;4952224;28;20090;-63
2021/06/05 00:48:12;;;;;;;16.50;15.05;;;;;;;17.77;84.07;95739.22;4952307;28;20035;-63
2021/06/05 00:50:39;;;;;;;14.73;13.52;;;;;;;17.73;83.94;95746.41;4954115;28;20090;-62
2021/06/05 00:53:05;;;;;;;13.07;11.93;;;;;;;17.64;84.01;95738.38;4951871;28;20043;-63
2021/06/05 00:55:33;;;;;;;11.77;10.98;;;;;;;17.59;83.70;95736.69;4947715;29;20087;-63
2021/06/05 00:57:59;;;;;;;11.25;10.38;;;;;;;17.51;83.41;95744.88;4942434;28;20389;-63
2021/06/05 01:00:27;;;;;;;11.88;10.98;;;;;;;17.42;83.68;95742.28;4950862;28;20042;-62
2021/06/05 01:02:56;;;;;;;15.00;13.90;;;;;;;17.24;84.00;95720.13;4951697;28;20066;-62
2021/06/05 01:05:21;;;;;;;16.42;15.18;;;;;;;17.28;84.32;95739.09;4953786;28;20074;-62
2021/06/05 01:07:48;;;;;;;13.25;12.25;;;;;;;17.23;84.44;95742.78;4951889;28;20051;-63
2021/06/05 01:10:26;;;;;;;12.27;11.38;;;;;;;17.20;84.55;95740.75;4951841;28;20094;-63
2021/06/05 01:13:07;;;;;;;11.18;10.40;;;;;;;17.12;84.68;95742.41;4930533;29;20072;-63
2021/06/05 01:15:39;;;;;;;10.53;9.83;;;;;;;17.13;84.69;95752.03;4951551;28;20075;-63
2021/06/05 01:18:15;;;;;;;10.13;9.43;;;;;;;17.06;84.55;95740.25;4951579;28;20027;-63
2021/06/05 01:21:31;;;;;;;10.82;10.02;;;;;;;16.98;85.13;95749.94;4953479;28;20027;-63
2021/06/05 01:24:35;;;;;;;12.50;11.50;;;;;;;17.00;85.09;95746.94;4872339;29;20552;-63
2021/06/05 01:27:10;;;;;;;11.82;11.02;;;;;;;16.99;85.01;95739.97;4878523;29;20625;-63
2021/06/05 01:29:40;;;;;;;11.20;10.40;;;;;;;17.08;85.27;95736.09;4921675;29;20039;-63
2021/06/05 01:32:10;;;;;;;11.77;10.77;;;;;;;17.14;85.08;95745.53;4930667;29;20052;-63
2021/06/05 01:34:39;;;;;;;11.07;10.23;;;;;;;17.20;84.99;95753.38;4930794;29;20048;-63
2021/06/05 01:37:07;;;;;;;11.63;10.77;;;;;;;17.15;85.09;95740.97;4932163;29;20115;-63
2021/06/05 01:39:35;;;;;;;10.77;9.82;;;;;;;17.17;84.59;95744.09;4932139;29;20514;-63
2021/06/05 01:42:06;;;;;;;10.68;9.77;;;;;;;17.09;84.21;95748.41;4932202;28;20060;-63
2021/06/05 01:44:33;;;;;;;12.00;11.13;;;;;;;17.25;83.96;95755.88;4952731;28;20027;-64
2021/06/05 01:46:59;;;;;;;9.75;9.10;;;;;;;16.89;84.59;95762.69;4951150;28;20279;-64
2021/06/05 01:49:24;;;;;;;10.18;9.40;;;;;;;16.91;84.67;95759.66;4951098;28;20038;-64
2021/06/05 01:51:58;;;;;;;9.55;8.82;;;;;;;16.70;86.01;95759.66;4951032;28;20070;-63
2021/06/05 01:54:32;;;;;;;11.00;10.05;;;;;;;16.61;85.82;95757.81;4950043;28;20066;-63
2021/06/05 01:57:06;;;;;;;10.35;9.60;;;;;;;16.34;87.17;95769.03;4938727;28;20023;-63
2021/06/05 01:59:32;;;;;;;10.23;9.52;;;;;;;16.10;88.73;95775.00;4932322;29;20039;-63
2021/06/05 02:01:58;;;;;;;10.20;9.30;;;;;;;16.31;87.52;95775.06;4931904;28;20043;-63
2021/06/05 02:04:24;;;;;;;11.20;10.30;;;;;;;16.32;87.76;95774.72;4930923;29;20048;-63
2021/06/05 02:06:51;;;;;;;12.38;11.30;;;;;;;16.35;87.25;95770.63;4931658;28;20126;-63
2021/06/05 02:09:19;;;;;;;12.30;11.40;;;;;;;15.95;89.00;95781.69;4930410;29;20036;-63
2021/06/05 02:12:00;;;;;;;11.68;10.77;;;;;;;16.15;88.58;95774.03;4932990;29;20035;-63
2021/06/05 02:14:34;;;;;;;11.63;10.82;;;;;;;16.14;87.96;95775.16;4922537;29;20086;-63
2021/06/05 02:17:01;;;;;;;12.45;11.50;;;;;;;15.89;89.97;95768.78;4931627;29;20098;-63
2021/06/05 02:19:31;;;;;;;14.70;13.43;;;;;;;15.99;89.37;95779.94;4931480;29;20051;-63
2021/06/05 02:22:00;;;;;;;14.45;13.30;;;;;;;15.64;90.36;95743.63;4931534;29;20516;-63
2021/06/05 02:24:57;;;;;;;17.05;15.55;;;;;;;15.81;90.23;95779.22;4930811;29;20044;-63
2021/06/05 02:27:25;;;;;;;16.55;15.35;;;;;;;16.02;89.65;95782.00;4914770;29;20541;-63
2021/06/05 02:29:52;;;;;;;19.67;18.00;;;;;;;15.89;90.45;95785.66;4949854;29;20027;-63
2021/06/05 02:32:21;;;;;;;20.00;18.40;;;;;;;16.09;89.21;95778.81;4950106;28;20063;-63
2021/06/05 02:34:47;;;;;;;20.50;18.88;;;;;;;15.79;91.05;95780.66;4950430;28;20039;-63
2021/06/05 02:37:16;;;;;;;19.45;17.65;;;;;;;15.97;89.93;95778.69;4950564;28;20036;-63
2021/06/05 02:39:42;;;;;;;18.55;16.95;;;;;;;15.57;91.93;95771.72;4950333;28;20042;-65
2021/06/05 02:42:11;;;;;;;19.92;18.27;;;;;;;15.59;92.51;95788.25;4937977;29;20031;-62
2021/06/05 02:44:40;;;;;;;19.67;17.98;;;;;;;15.71;91.40;95782.25;4931563;29;20032;-64
2021/06/05 02:47:08;;;;;;;20.48;18.70;;;;;;;15.83;91.46;95781.59;4931131;29;20401;-63
2021/06/05 02:49:35;;;;;;;20.42;18.73;;;;;;;15.59;92.35;95782.09;4931262;29;20107;-63
2021/06/05 02:52:11;;;;;;;20.63;18.73;;;;;;;15.51;93.57;95777.56;4931063;29;20417;-63
2021/06/05 02:54:37;;;;;;;20.80;19.00;;;;;;;15.47;93.01;95782.78;4930990;29;20123;-63
2021/06/05 02:57:06;;;;;;;22.08;20.17;;;;;;;15.56;92.90;95782.75;4929804;29;20331;-62
2021/06/05 02:59:33;;;;;;;21.50;19.58;;;;;;;15.59;92.17;95780.22;4931559;29;20032;-63
2021/06/05 03:01:58;;;;;;;20.65;18.85;;;;;;;15.59;92.35;95788.25;4929622;29;20059;-63
2021/06/05 03:04:24;;;;;;;23.25;20.98;;;;;;;15.42;92.58;95761.50;4930630;28;20512;-63
2021/06/05 03:06:50;;;;;;;21.90;19.13;;;;;;;15.62;92.65;95788.75;4930175;29;20047;-63
2021/06/05 03:09:16;;;;;;;19.80;18.13;;;;;;;15.56;92.95;95791.59;4935137;29;20052;-63
2021/06/05 03:11:46;;;;;;;19.20;17.50;;;;;;;15.08;95.30;95789.91;4936541;29;20647;-63
2021/06/05 03:14:13;;;;;;;18.50;16.88;;;;;;;15.35;93.73;95796.03;4926683;29;20031;-64
2021/06/05 03:16:39;;;;;;;18.50;16.77;;;;;;;15.42;93.41;95795.56;4934716;29;20561;-63
2021/06/05 03:19:05;;;;;;;22.10;19.85;;;;;;;15.74;90.83;95803.06;4934683;28;20036;-63
2021/06/05 03:21:31;;;;;;;18.90;17.30;;;;;;;15.58;91.94;95802.78;4934660;28;20079;-64
2021/06/05 03:23:57;;;;;;;20.17;18.38;;;;;;;15.56;91.19;95788.91;4932700;29;20027;-64
2021/06/05 03:26:23;;;;;;;19.60;17.83;;;;;;;15.73;90.64;95798.81;4935780;29;20019;-63
2021/06/05 03:28:50;;;;;;;19.05;17.38;;;;;;;15.65;90.66;95788.13;4934096;29;20044;-63
2021/06/05 03:31:19;;;;;;;19.33;17.40;;;;;;;15.82;90.73;95801.50;4934470;29;20052;-63
2021/06/05 03:33:45;;;;;;;20.88;19.08;;;;;;;15.98;89.36;95799.06;4932822;29;20131;-64
2021/06/05 03:36:12;;;;;;;20.05;18.35;;;;;;;15.90;89.12;95813.28;4934458;29;20016;-64
2021/06/05 03:38:41;;;;;;;19.58;17.98;;;;;;;15.90;89.30;95789.91;4936185;29;20070;-63
2021/06/05 03:41:07;;;;;;;18.98;17.10;;;;;;;15.92;89.39;95811.88;4932228;29;20565;-63
2021/06/05 03:43:32;;;;;;;16.05;14.75;;;;;;;15.88;89.06;95797.53;4964134;28;20060;-63
2021/06/05 03:45:57;;;;;;;18.10;16.45;;;;;;;15.99;88.91;95806.78;4934111;29;20048;-63
2021/06/05 03:48:23;;;;;;;17.83;16.15;;;;;;;15.93;88.78;95797.34;4934306;29;20437;-64
2021/06/05 03:50:53;;;;;;;16.38;14.82;;;;;;;16.02;88.58;95808.03;4935930;29;20034;-63
2021/06/05 03:53:20;;;;;;;16.85;15.43;;;;;;;16.20;87.96;95811.44;4933845;29;20099;-63
2021/06/05 03:55:46;;;;;;;16.60;15.07;;;;;;;16.04;87.84;95784.34;4933936;29;20082;-63
2021/06/05 03:58:12;;;;;;;15.63;14.07;;;;;;;16.01;87.79;95793.03;4933088;29;20472;-63
2021/06/05 04:00:42;;;;;;;13.85;12.75;;;;;;;16.14;87.67;95802.00;4932592;29;20040;-63
2021/06/05 04:03:09;;;;;;;11.50;10.63;;;;;;;16.40;86.97;95801.88;4933389;29;20023;-63
2021/06/05 04:05:35;;;;;;;10.88;9.98;;;;;;;16.55;85.71;95802.09;4934521;29;20027;-63
2021/06/05 04:08:01;;;;;;;10.05;9.25;;;;;;;16.76;84.69;95804.03;4933889;29;20035;-63
2021/06/05 04:10:27;;;;;;;10.68;9.75;;;;;;;16.75;83.82;95811.31;4932138;29;20435;-63
2021/06/05 04:12:54;;;;;;;10.50;9.43;;;;;;;16.84;83.91;95803.19;4932450;29;20102;-64
2021/06/05 04:15:24;;;;;;;8.65;8.02;;;;;;;17.19;83.57;95808.28;4933373;29;20090;-65
2021/06/05 04:18:08;;;;;;;8.35;7.70;;;;;;;17.27;81.99;95785.91;4935160;29;20035;-63
2021/06/05 04:20:36;;;;;;;8.25;7.45;;;;;;;17.55;81.02;95804.94;4933983;29;20044;-63
2021/06/05 04:23:02;;;;;;;7.38;6.72;;;;;;;17.87;80.31;95804.16;4933045;29;20126;-63
2021/06/05 04:25:27;;;;;;;7.00;6.28;;;;;;;18.27;79.23;95800.03;4932071;29;20375;-64
2021/06/05 04:27:53;;;;;;;7.75;6.30;;;;;;;18.49;77.78;95799.59;4932641;29;20054;-64
2021/06/05 04:30:23;;;;;;;6.63;6.07;;;;;;;18.77;76.66;95790.81;4931983;29;20145;-64
2021/06/05 04:32:49;;;;;;;6.65;5.50;;;;;;;19.10;75.67;95801.41;4934923;29;20038;-64
2021/06/05 04:35:15;;;;;;;6.10;5.68;;;;;;;19.33;74.09;95794.34;4933263;29;20044;-64
2021/06/05 04:37:41;;;;;;;5.55;4.97;;;;;;;19.42;72.41;95807.69;4933364;29;20035;-64
2021/06/05 04:40:07;;;;;;;7.85;5.10;;;;;;;19.47;71.82;95792.03;4932058;29;20066;-64
2021/06/05 04:42:32;;;;;;;5.05;4.65;;;;;;;19.69;71.09;95779.91;4932169;29;20027;-64
2021/06/05 04:44:58;;;;;;;5.10;4.72;;;;;;;19.90;70.74;95792.38;4931746;29;20034;-63
2021/06/05 04:47:23;;;;;;;5.13;4.72;;;;;;;20.18;69.55;95798.50;4935051;29;20032;-64
2021/06/05 04:49:49;;;;;;;4.85;4.50;;;;;;;20.38;69.20;95803.97;4933273;29;20076;-64
2021/06/05 04:52:14;;;;;;;5.22;4.78;;;;;;;20.57;68.53;95800.56;4932543;29;20099;-64
2021/06/05 04:54:40;;;;;;;4.70;4.40;;;;;;;20.70;67.72;95805.50;4932818;29;20106;-64
2021/06/05 04:57:05;;;;;;;4.53;4.22;;;;;;;20.80;66.08;95806.09;4932390;29;20067;-64
2021/06/05 04:59:31;;;;;;;7.30;4.70;;;;;;;20.93;66.13;95794.00;4975968;23;20069;-69
2021/06/05 05:01:56;;;;;;;3.58;3.38;;;;;;;20.96;65.92;95791.41;4991004;28;20121;-72
2021/06/05 05:04:22;;;;;;;3.97;3.58;;;;;;;21.18;65.29;95797.25;4990552;28;20041;-72
2021/06/05 05:06:48;;;;;;;6.07;3.17;;;;;;;21.27;64.31;95778.88;4989845;28;20042;-70
2021/06/05 05:09:17;;;;;;;5.55;2.67;;;;;;;21.13;63.00;95786.69;4991085;28;20039;-70
2021/06/05 05:11:43;;;;;;;3.40;3.15;;;;;;;21.24;63.13;95772.28;4992239;28;20116;-70
2021/06/05 05:14:10;;;;;;;3.20;2.90;;;;;;;21.47;62.96;95788.56;4990069;28;20117;-70
2021/06/05 05:16:36;;;;;;;8.60;3.40;;;;;;;21.57;62.94;95781.81;4990809;28;20121;-70
2021/06/05 05:19:01;;;;;;;3.47;2.75;;;;;;;21.39;61.50;95784.16;4990712;28;20141;-71
2021/06/05 05:21:28;;;;;;;4.43;2.60;;;;;;;21.58;62.11;95791.47;4989315;28;20129;-70
2021/06/05 05:23:54;;;;;;;2.70;2.38;;;;;;;21.72;62.34;95786.34;4992032;28;20399;-70
2021/06/05 05:26:21;;;;;;;5.03;2.80;;;;;;;21.32;61.82;95786.75;4989837;28;20042;-70
2021/06/05 05:28:49;;;;;;;2.50;2.30;;;;;;;21.48;61.73;95776.59;4989667;28;20057;-70
2021/06/05 05:31:17;;;;;;;2.60;2.40;;;;;;;21.65;61.72;95785.41;4989620;28;20045;-71
2021/06/05 05:33:43;;;;;;;2.35;2.10;;;;;;;21.47;61.02;95779.69;4989844;28;20046;-71
2021/06/05 05:36:12;;;;;;;2.80;2.25;;;;;;;21.11;62.44;95770.84;4989106;28;20022;-70
2021/06/05 05:38:39;;;;;;;3.30;2.50;;;;;;;21.25;62.47;95776.53;4991117;28;20022;-70
2021/06/05 05:41:11;;;;;;;3.38;2.08;;;;;;;21.47;61.92;95769.63;4990344;28;20687;-70
2021/06/05 05:43:36;;;;;;;2.40;2.17;;;;;;;21.21;62.11;95772.97;4998059;28;20480;-70
2021/06/05 05:46:04;;;;;;;3.00;2.00;;;;;;;21.12;61.68;95779.72;5008183;28;20037;-71
2021/06/05 05:48:34;;;;;;;2.20;2.10;;;;;;;21.23;62.57;95770.69;5009796;28;20381;-70
2021/06/05 05:50:59;;;;;;;2.45;2.25;;;;;;;21.63;61.50;95766.81;5008146;28;20018;-70
2021/06/05 05:53:25;;;;;;;3.40;2.00;;;;;;;21.56;60.71;95755.09;5011047;28;20162;-70
2021/06/05 05:55:50;;;;;;;4.25;2.30;;;;;;;20.58;64.00;95775.91;5009514;28;20034;-70
2021/06/05 05:58:20;;;;;;;3.80;1.67;;;;;;;21.10;62.00;95763.09;4994944;28;20395;-70
2021/06/05 06:00:47;;;;;;;2.28;1.77;;;;;;;20.85;62.11;95763.34;4989648;28;20053;-70
2021/06/05 06:03:14;;;;;;;2.50;1.80;;;;;;;20.41;63.98;95778.94;4986339;28;20042;-70
2021/06/05 06:05:40;;;;;;;3.40;2.05;;;;;;;20.67;63.47;95768.38;4972318;28;20023;-69
2021/06/05 06:08:07;;;;;;;3.53;1.70;;;;;;;20.06;64.60;95774.25;4987937;28;20092;-69
2021/06/05 06:10:33;;;;;;;2.40;1.52;;;;;;;20.30;64.59;95772.50;4989324;28;20073;-70
2021/06/05 06:12:58;;;;;;;1.65;1.55;;;;;;;20.14;64.80;95764.44;4988548;28;20049;-69
2021/06/05 06:15:26;;;;;;;1.88;1.20;;;;;;;20.17;63.27;95777.25;4994600;28;20037;-79
2021/06/05 06:17:52;;;;;;;1.88;1.15;;;;;;;20.62;62.69;95784.84;5013605;28;20052;-81
2021/06/05 06:20:29;;;;;;;2.17;1.35;;;;;;;20.41;62.20;95787.84;5011676;28;20488;-78
2021/06/05 06:22:54;;;;;;;2.65;1.15;;;;;;;20.06;64.51;95792.38;5011009;28;20049;-79
2021/06/05 06:25:23;;;;;;;2.35;1.33;;;;;;;20.93;62.25;95789.38;5011295;28;20034;-80
2021/06/05 06:27:49;;;;;;;1.17;1.13;;;;;;;21.23;61.44;95784.22;5002172;28;20093;-79
2021/06/05 06:30:25;;;;;;;2.05;1.20;;;;;;;21.53;60.24;95779.03;4994797;28;20383;-80
2021/06/05 06:32:54;;;;;;;1.65;1.55;;;;;;;21.51;60.84;95785.94;5013078;28;20029;-79
2021/06/05 06:35:28;;;;;;;2.25;1.15;;;;;;;21.89;58.33;95776.16;5010758;28;20037;-77
2021/06/05 06:37:54;;;;;;;3.53;1.17;;;;;;;22.35;56.58;95754.47;5008529;28;20064;-78
2021/06/05 06:40:27;;;;;;;2.22;1.10;;;;;;;21.44;57.62;95773.03;5009582;28;20111;-71
2021/06/05 06:42:53;;;;;;;2.63;1.17;;;;;;;20.74;59.13;95763.13;4987201;28;20038;-71
2021/06/05 06:45:19;;;;;;;1.63;0.90;;;;;;;21.68;58.07;95771.94;4976121;28;20069;-74
2021/06/05 06:47:45;;;;;;;4.65;0.70;;;;;;;22.30;56.84;95731.97;5010095;28;20460;-73
2021/06/05 06:50:14;;;;;;;1.88;1.00;;;;;;;22.49;53.54;95746.56;5009242;28;20089;-75
2021/06/05 06:52:40;;;;;;;1.92;0.95;;;;;;;22.17;54.44;95755.00;5006285;28;20041;-73
2021/06/05 06:55:07;;;;;;;1.60;0.65;;;;;;;22.42;54.87;95776.25;4974546;28;20093;-76
2021/06/05 06:57:32;;;;;;;1.83;0.88;;;;;;;23.23;53.76;95764.97;5001096;28;20053;-74
2021/06/05 06:59:58;;;;;;;1.33;0.80;;;;;;;22.73;52.89;95748.84;4987729;28;20582;-71
2021/06/05 07:02:23;;;;;;;1.35;0.73;;;;;;;23.19;52.19;95756.03;4990696;28;20079;-70
2021/06/05 07:04:50;;;;;;;2.28;1.00;;;;;;;21.71;55.23;95776.66;4989203;28;20041;-69
2021/06/05 07:07:17;;;;;;;3.05;1.10;;;;;;;22.37;53.73;95771.16;4989393;28;20039;-72
2021/06/05 07:09:42;;;;;;;3.03;1.10;;;;;;;23.04;51.79;95769.44;4988989;28;20054;-68
2021/06/05 07:12:08;;;;;;;1.10;0.70;;;;;;;23.43;51.02;95758.22;4986256;28;20550;-68
2021/06/05 07:14:34;;;;;;;1.20;0.75;;;;;;;24.07;50.13;95758.88;4971519;28;20026;-70
2021/06/05 07:17:00;;;;;;;2.08;1.00;;;;;;;23.04;51.83;95774.06;5004060;28;20134;-70
2021/06/05 07:19:26;;;;;;;1.70;0.90;;;;;;;21.98;53.99;95772.06;5007684;28;20034;-69
2021/06/05 07:21:52;;;;;;;1.35;0.68;;;;;;;22.54;53.34;95774.16;5008860;28;20058;-68
2021/06/05 07:24:17;;;;;;;1.33;0.70;;;;;;;22.43;54.00;95777.84;5007991;28;20387;-70
2021/06/05 07:26:43;;;;;;;1.70;1.00;;;;;;;22.00;55.38;95775.19;5010697;28;20029;-71
2021/06/05 07:29:11;;;;;;;1.23;1.00;;;;;;;21.76;55.76;95787.19;4990716;28;20077;-70
2021/06/05 07:31:45;;;;;;;1.52;0.98;;;;;;;21.86;55.94;95782.31;4988975;28;20066;-71
2021/06/05 07:34:11;;;;;;;2.30;1.10;;;;;;;21.39;56.37;95767.91;4988655;28;20064;-71
2021/06/05 07:36:41;;;;;;;1.50;1.02;;;;;;;21.85;55.43;95772.63;4989080;28;20488;-71
2021/06/05 07:39:11;;;;;;;1.55;1.08;;;;;;;21.60;56.50;95770.25;4987923;28;20035;-70
2021/06/05 07:41:36;;;;;;;0.85;0.85;;;;;;;22.14;55.73;95771.97;4990841;28;20109;-71
2021/06/05 07:44:03;;;;;;;2.63;1.05;;;;;;;21.87;56.22;95775.75;4971608;28;20049;-71
2021/06/05 07:46:28;;;;;;;3.17;1.00;;;;;;;22.56;54.01;95782.69;4994868;28;20052;-71
2021/06/05 07:48:54;;;;;;;2.58;1.50;;;;;;;21.72;55.58;95774.72;5007162;28;20121;-71
2021/06/05 07:51:20;;;;;;;1.33;1.00;;;;;;;21.36;57.58;95792.22;5008632;28;20065;-71
2021/06/05 07:53:47;;;;;;;1.52;0.80;;;;;;;22.76;55.29;95775.22;5012185;28;20670;-72
2021/06/05 07:56:13;;;;;;;2.50;1.10;;;;;;;23.35;54.33;95773.69;5010590;28;20069;-72
2021/06/05 07:58:39;;;;;;;3.95;0.90;;;;;;;23.71;52.37;95787.66;4993065;28;20069;-71
2021/06/05 08:01:05;;;;;;;2.25;1.00;;;;;;;23.84;51.10;95780.78;4991931;28;20407;-72
2021/06/05 08:03:31;;;;;;;1.33;1.08;;;;;;;24.08;50.80;95765.88;4991884;28;20031;-72
2021/06/05 08:05:56;;;;;;;1.90;0.88;;;;;;;23.58;51.58;95776.25;4992285;28;20484;-72
2021/06/05 08:08:22;;;;;;;2.42;1.00;;;;;;;22.62;53.85;95788.56;4992935;28;20030;-72
2021/06/05 08:10:48;;;;;;;1.30;0.77;;;;;;;23.13;52.53;95771.84;4992021;28;20034;-72
2021/06/05 08:13:14;;;;;;;0.98;0.90;;;;;;;21.89;54.07;95784.28;4982657;28;20045;-72
2021/06/05 08:15:43;;;;;;;3.08;0.93;;;;;;;22.12;53.28;95793.25;4984983;28;20038;-72
2021/06/05 08:18:10;;;;;;;4.25;0.90;;;;;;;22.62;52.10;95785.09;5011673;28;20022;-72
2021/06/05 08:20:44;;;;;;;1.15;0.70;;;;;;;22.87;51.19;95782.72;5013675;28;20029;-73
2021/06/05 08:23:10;;;;;;;3.45;0.90;;;;;;;22.75;51.07;95784.50;5011030;28;20506;-73
2021/06/05 08:25:36;;;;;;;0.60;0.60;;;;;;;21.90;52.99;95794.75;5011310;28;20038;-72
2021/06/05 08:28:02;;;;;;;2.17;0.80;;;;;;;22.86;50.70;95792.00;5004609;28;20034;-72
2021/06/05 08:30:41;;;;;;;1.67;1.00;;;;;;;22.48;53.99;95794.59;4991689;28;20112;-71
2021/06/05 08:33:07;;;;;;;1.95;0.93;;;;;;;22.29;52.67;95790.03;4991267;28;20389;-72
2021/06/05 08:35:34;;;;;;;1.30;0.75;;;;;;;23.42;50.47;95783.03;4994081;28;20428;-72
2021/06/05 08:38:00;;;;;;;2.08;1.10;;;;;;;24.44;48.86;95792.59;4990279;28;20081;-71
2021/06/05 08:40:39;;;;;;;1.98;1.00;;;;;;;24.74;48.67;95784.25;4990707;28;20038;-70
2021/06/05 08:43:05;;;;;;;1.83;0.93;;;;;;;24.56;48.31;95784.91;4990385;28;20789;-73
2021/06/05 08:45:31;;;;;;;1.40;1.25;;;;;;;25.23;45.99;95706.72;4988365;28;20034;-76
2021/06/05 08:48:02;;;;;;;2.03;0.95;;;;;;;25.87;44.82;95786.69;4990127;28;20113;-73
2021/06/05 08:50:30;;;;;;;1.30;0.98;;;;;;;24.25;49.22;95786.19;4993168;28;20496;-71
2021/06/05 08:53:07;;;;;;;2.20;1.10;;;;;;;22.74;53.68;95798.44;4990927;28;20266;-73
2021/06/05 08:55:40;;;;;;;1.65;1.10;;;;;;;22.18;56.31;95778.25;4991415;28;20038;-73
2021/06/05 08:58:27;;;;;;;1.40;0.80;;;;;;;22.10;54.31;95792.78;4982965;28;20460;-76
2021/06/05 09:00:56;;;;;;;2.83;0.75;;;;;;;22.04;54.71;95773.34;4988173;28;20488;-76
2021/06/05 09:03:23;;;;;;;0.98;0.68;;;;;;;22.45;52.36;95779.03;5009081;28;20038;-74
2021/06/05 09:05:57;;;;;;;1.85;0.82;;;;;;;21.92;54.74;95794.41;5010568;28;20021;-75
2021/06/05 09:08:24;;;;;;;1.73;0.63;;;;;;;22.02;54.00;95785.69;5009405;28;20184;-76
2021/06/05 09:10:53;;;;;;;1.05;0.70;;;;;;;22.31;53.08;95771.47;5010974;28;20045;-75
2021/06/05 09:13:18;;;;;;;0.90;0.60;;;;;;;21.95;52.86;95761.19;5002740;28;20038;-76
2021/06/05 09:15:44;;;;;;;1.05;0.60;;;;;;;22.28;52.61;95796.59;4990343;28;20659;-78
2021/06/05 09:18:12;;;;;;;0.73;0.40;;;;;;;22.33;51.93;95771.13;4989631;28;20023;-69
2021/06/05 09:20:38;;;;;;;0.68;0.60;;;;;;;22.83;50.70;95786.19;4991742;28;20030;-67
2021/06/05 09:23:34;;;;;;;0.73;0.57;;;;;;;22.52;48.73;95803.56;4990544;28;20039;-69
2021/06/05 09:26:26;;;;;;;1.02;0.70;;;;;;;22.36;51.20;95800.19;4990380;28;20038;-76
2021/06/05 09:29:12;;;;;;;0.47;0.40;;;;;;;21.50;51.34;95787.88;4979110;28;20034;-70
2021/06/05 09:31:52;;;;;;;0.40;0.40;;;;;;;21.32;51.95;95808.38;4997193;28;20420;-67
2021/06/05 09:34:18;;;;;;;0.50;0.40;;;;;;;22.61;50.41;95797.84;5009933;28;20038;-67
2021/06/05 09:36:44;;;;;;;0.63;0.50;;;;;;;22.22;50.66;95808.91;5008871;28;20049;-71
2021/06/05 09:39:13;;;;;;;0.63;0.52;;;;;;;22.69;50.23;95807.69;5009672;28;20384;-75
2021/06/05 09:41:42;;;;;;;1.75;0.50;;;;;;;22.97;47.36;95806.53;5011600;28;20048;-71
2021/06/05 09:44:37;;;;;;;0.90;0.40;;;;;;;23.09;48.14;95796.25;4996629;28;20032;-67
2021/06/05 09:47:06;;;;;;;0.85;0.50;;;;;;;23.12;48.28;95804.78;4990053;28;20050;-67
2021/06/05 09:49:35;;;;;;;0.50;0.50;;;;;;;22.52;48.81;95794.63;4988647;28;20069;-71
2021/06/05 09:52:07;;;;;;;1.77;0.50;;;;;;;22.69;48.24;95804.97;4989614;28;20043;-67
2021/06/05 09:54:42;;;;;;;2.97;0.80;;;;;;;23.25;49.40;95806.91;4989741;28;20351;-68
2021/06/05 09:57:47;;;;;;;1.02;0.60;;;;;;;22.89;47.77;95788.59;4989561;28;20165;-70
2021/06/05 10:00:15;;;;;;;1.27;0.85;;;;;;;23.04;48.76;95780.28;4934004;28;20031;-69
2021/06/05 10:02:49;;;;;;;2.53;0.80;;;;;;;23.12;47.61;95789.28;4969068;28;20035;-67
2021/06/05 10:05:24;;;;;;;1.15;0.70;;;;;;;23.55;46.07;95778.94;4979674;28;20088;-69
2021/06/05 10:07:51;;;;;;;1.35;0.50;;;;;;;23.47;46.71;95771.84;4989441;28;20539;-68
2021/06/05 10:10:17;;;;;;;1.02;0.60;;;;;;;23.95;44.32;95788.25;4987215;28;20377;-68
2021/06/05 10:12:44;;;;;;;0.77;0.60;;;;;;;22.89;48.00;95775.81;4988813;28;20100;-68
2021/06/05 10:15:16;;;;;;;1.17;0.80;;;;;;;23.11;48.85;95773.38;4972281;28;20665;-67
2021/06/05 10:17:46;;;;;;;0.90;0.60;;;;;;;23.18;47.69;95763.38;5010890;28;20447;-68
2021/06/05 10:20:44;;;;;;;0.82;0.40;;;;;;;23.59;48.20;95777.03;5008635;28;20042;-68
2021/06/05 10:23:13;;;;;;;1.15;0.70;;;;;;;23.69;46.95;95737.56;5008060;28;20041;-67
2021/06/05 10:25:44;;;;;;;0.63;0.50;;;;;;;22.86;47.04;95714.13;5008551;28;20066;-67
2021/06/05 10:28:16;;;;;;;1.45;0.60;;;;;;;23.23;47.36;95773.13;5005558;28;20088;-67
2021/06/05 10:30:53;;;;;;;1.15;0.70;;;;;;;23.25;48.31;95774.34;4989203;28;20038;-67
2021/06/05 10:33:43;;;;;;;1.38;0.68;;;;;;;23.33;48.14;95756.97;4988549;28;20038;-67
2021/06/05 10:36:34;;;;;;;0.70;0.60;;;;;;;23.14;48.11;95702.09;4985035;28;20512;-68
2021/06/05 10:39:07;;;;;;;2.15;0.60;;;;;;;24.10;47.58;95711.13;4985687;28;20038;-68
2021/06/05 10:41:37;;;;;;;1.13;0.80;;;;;;;23.64;46.13;95714.25;4990952;28;20022;-65
2021/06/05 10:44:06;;;;;;;1.27;0.80;;;;;;;23.58;48.10;95767.31;4978189;28;20061;-68
2021/06/05 10:46:50;;;;;;;0.77;0.68;;;;;;;23.32;48.65;95747.25;4993326;28;20065;-68
2021/06/05 10:49:18;;;;;;;1.95;0.88;;;;;;;24.44;46.77;95773.56;5008722;28;20034;-68
2021/06/05 10:51:47;;;;;;;0.88;0.73;;;;;;;23.29;48.20;95710.03;5008315;28;20038;-68
2021/06/05 10:54:26;;;;;;;0.73;0.73;;;;;;;22.74;50.57;95766.69;5005989;28;20026;-68
2021/06/05 10:57:24;;;;;;;1.20;0.90;;;;;;;23.37;49.50;95762.44;5010566;28;20553;-69
2021/06/05 10:59:55;;;;;;;1.67;0.90;;;;;;;22.23;51.23;95699.34;4940577;28;20047;-69
2021/06/05 11:02:37;;;;;;;;;;;;;;;22.68;51.36;95765.44;4966195;23;20047;-68
2021/06/05 11:05:32;;;;;;;1.60;0.85;;;;;;;22.67;51.28;95752.22;4967569;28;19925;-67
2021/06/05 11:08:13;;;;;;;1.60;0.80;;;;;;;23.32;51.25;95746.47;4969484;28;20038;-69
2021/06/05 11:10:51;;;;;;;0.75;0.70;;;;;;;22.76;52.24;95756.22;4969199;28;20182;-69
2021/06/05 11:13:31;;;;;;;1.45;0.95;;;;;;;23.49;51.33;95745.91;4966379;28;20035;-70
2021/06/05 11:16:17;;;;;;;2.53;1.13;;;;;;;23.50;51.30;95735.81;4957095;28;20445;-68
2021/06/05 11:18:43;;;;;;;3.42;1.17;;;;;;;22.80;51.49;95740.03;4969039;28;20069;-69
2021/06/05 11:21:24;;;;;;;2.08;1.20;;;;;;;22.28;53.17;95755.94;4967902;28;20480;-69
2021/06/05 11:23:56;;;;;;;0.93;0.93;;;;;;;23.07;52.52;95746.19;4971034;28;20111;-69
2021/06/05 11:26:37;;;;;;;1.55;0.90;;;;;;;23.05;51.38;95748.50;4969856;28;20086;-68
2021/06/05 11:29:21;;;;;;;1.63;1.30;;;;;;;22.42;53.22;95749.16;4963646;28;20046;-69
2021/06/05 11:31:52;;;;;;;2.03;1.20;;;;;;;22.61;52.91;95749.06;4968270;28;20043;-68
2021/06/05 11:34:33;;;;;;;1.23;1.00;;;;;;;22.69;52.36;95750.72;4972423;28;20130;-69
2021/06/05 11:37:15;;;;;;;1.83;0.70;;;;;;;22.16;51.87;95726.34;4972916;28;20057;-70
2021/06/05 11:40:02;;;;;;;1.05;0.88;;;;;;;21.92;52.73;95748.38;4972361;28;20142;-69
2021/06/05 11:42:48;;;;;;;1.48;0.90;;;;;;;22.34;52.73;95745.56;4970809;28;20043;-70